ROMMA est une association bénévole à but non lucratif. Votre soutien est indispensable : ADHERER à ROMMA ou FAIRE un DON

Crest - (26, Drôme)

Vallée de la Drôme (315 m)   Longitude: 5°2' E   Latitude: 44°44' N Station partenaire n°62
 

Détail journalier du     <<     >>

Température Precipitation Humidité Pression Vent Dir Rafale Dir. rafale Ensol.
Heure (°C) (mm) (%) (hPa) (km/h) (km/h) (min)
01:00 4.607110223SE15SE0
02:00 3.807510223SE13SE0
03:00 4.307310225SE13ESE0
04:00 5.106910214SE13ESE0
05:00 5.706710212---6SSO0
06:00 4.807210212SSE8SE0
07:00 5.106810213SE11SE0
08:00 4.607210222SE10SE0
09:00 4.907110222SSE8SE17
10:00 5.707310222SE8SSE17
11:00 7.806810223SE10SE58
12:00 9.106510226S16S59
13:00 10.706010216S15S60
14:00 11.106410219S23SSO55
15:00 11.605910206S16S59
16:00 11.605910215S18SSO60
17:00 9.307010215S15SSO28
18:00 8.207410216SSO16SSO0
19:00 9.4066102110SO21ENE0
20:00 9.606510226SO16NNO0
21:00 5.208110224SE15N0
22:00 6.607310226SO21SO0
23:00 4.108210223SE18SO0
minuit 2.908810223SE11NE0

Graphique du 07-12-2019

 

Serveur OMMA